Time;durP1;ratioP1;P1;durP2;ratioP2;P2;SDS_P1;SDS_P2;PMS_P1;PMS_P2;Temp;Humidity;BMP_temperature;BMP_pressure;BME280_temperature;BME280_humidity;BME280_pressure;Samples;Min_cycle;Max_cycle;Signal;HPM_P1;HPM_P2
2022/07/09 03:00:07;;;;;;;0.38;0.38;;;26.60;41.60;;;;;;6033940;23;45069;31
2022/07/09 03:02:33;;;;;;;0.60;0.50;;;26.60;41.60;;;;;;4876745;28;46103;-59
2022/07/09 03:04:58;;;;;;;0.43;0.38;;;26.60;41.60;;;;;;4856052;28;44963;-60
2022/07/09 03:07:24;;;;;;;0.70;0.38;;;26.60;41.60;;;;;;4890129;29;45943;-60
2022/07/09 03:09:49;;;;;;;0.70;0.47;;;26.60;41.60;;;;;;4894421;28;45468;-61
2022/07/09 03:12:15;;;;;;;0.90;0.55;;;26.60;41.60;;;;;;4893023;28;45702;-61
2022/07/09 03:14:41;;;;;;;0.55;0.38;;;26.60;41.60;;;;;;4891103;28;45738;-59
2022/07/09 03:17:07;;;;;;;0.77;0.47;;;26.60;41.60;;;;;;4897698;28;45969;-59
2022/07/09 03:19:32;;;;;;;0.57;0.57;;;26.60;41.70;;;;;;4894087;28;45603;-58
2022/07/09 03:21:58;;;;;;;0.57;0.50;;;26.50;41.60;;;;;;4896445;28;45642;-61
2022/07/09 03:24:24;;;;;;;0.47;0.47;;;26.50;41.60;;;;;;4893760;28;45241;-59
2022/07/09 03:26:49;;;;;;;0.65;0.40;;;26.50;41.70;;;;;;4891011;28;46248;-61
2022/07/09 03:29:15;;;;;;;0.80;0.50;;;26.50;41.60;;;;;;4898414;28;45540;-59
2022/07/09 03:31:40;;;;;;;0.68;0.40;;;26.50;41.70;;;;;;4896231;28;45238;-61
2022/07/09 03:34:06;;;;;;;1.17;0.63;;;26.50;41.70;;;;;;4889979;28;45071;-58
2022/07/09 03:36:32;;;;;;;0.70;0.50;;;26.60;41.70;;;;;;4878880;28;46693;-61
2022/07/09 03:38:57;;;;;;;1.02;0.60;;;26.50;41.60;;;;;;4898295;28;45365;-60
2022/07/09 03:41:23;;;;;;;0.60;0.40;;;26.50;41.70;;;;;;4897115;28;45374;-59
2022/07/09 03:43:49;;;;;;;0.45;0.35;;;26.50;41.60;;;;;;4895525;28;44886;-60
2022/07/09 03:46:14;;;;;;;0.75;0.60;;;26.50;41.60;;;;;;4898268;28;46158;-60
2022/07/09 03:48:40;;;;;;;1.27;0.50;;;26.50;41.60;;;;;;4895142;28;45516;-59
2022/07/09 03:51:06;;;;;;;0.75;0.40;;;26.50;41.70;;;;;;4895496;28;45324;-58
2022/07/09 03:53:31;;;;;;;0.88;0.60;;;26.50;41.70;;;;;;4891485;28;45130;-61
2022/07/09 03:55:57;;;;;;;0.65;0.40;;;26.50;41.60;;;;;;4898312;28;45346;-58
2022/07/09 03:58:22;;;;;;;0.57;0.40;;;26.50;41.70;;;;;;4895687;28;45288;-60
2022/07/09 04:00:48;;;;;;;0.75;0.63;;;26.50;41.60;;;;;;4890776;28;44860;-60
2022/07/09 04:03:14;;;;;;;0.63;0.40;;;26.50;41.60;;;;;;4876123;28;45785;-58
2022/07/09 04:05:39;;;;;;;0.65;0.50;;;26.50;41.60;;;;;;4894778;28;45939;-58
2022/07/09 04:08:05;;;;;;;0.65;0.40;;;26.50;41.70;;;;;;4900033;28;45574;-60
2022/07/09 04:10:30;;;;;;;0.65;0.45;;;26.50;41.60;;;;;;4894802;28;45177;-59
2022/07/09 04:12:56;;;;;;;0.45;0.40;;;26.50;41.60;;;;;;4896194;28;45321;-59
2022/07/09 04:15:22;;;;;;;0.50;0.47;;;26.50;41.60;;;;;;4895844;28;46486;-60
2022/07/09 04:17:47;;;;;;;0.65;0.55;;;26.50;41.70;;;;;;4886403;28;45528;-61
2022/07/09 04:20:33;;;;;;;0.50;0.40;;;26.50;41.60;;;;;;4893369;28;45674;-58
2022/07/09 04:22:59;;;;;;;0.55;0.40;;;26.50;41.60;;;;;;4895044;28;45335;-60
2022/07/09 04:25:24;;;;;;;0.82;0.43;;;26.50;41.60;;;;;;4893909;28;45893;-59
2022/07/09 04:27:50;;;;;;;0.40;0.40;;;26.50;41.70;;;;;;4895550;28;44755;-58
2022/07/09 04:30:15;;;;;;;0.55;0.40;;;26.50;41.60;;;;;;4891332;28;45390;-61
2022/07/09 04:32:41;;;;;;;0.90;0.57;;;26.50;41.70;;;;;;4889720;28;45356;-60
2022/07/09 04:35:07;;;;;;;0.52;0.40;;;26.50;41.60;;;;;;4886290;28;45895;-59
2022/07/09 04:37:32;;;;;;;0.60;0.40;;;26.50;41.70;;;;;;4895993;28;45679;-58
2022/07/09 04:39:58;;;;;;;0.43;0.40;;;26.50;41.70;;;;;;4898845;28;45368;-59
2022/07/09 04:42:24;;;;;;;0.55;0.40;;;26.40;41.70;;;;;;4895830;28;45487;-58
2022/07/09 04:44:49;;;;;;;0.50;0.40;;;26.50;41.70;;;;;;4895502;28;45575;-59
2022/07/09 04:47:15;;;;;;;0.60;0.60;;;26.40;41.70;;;;;;4896358;28;45562;-60
2022/07/09 04:49:41;;;;;;;0.40;0.40;;;26.40;41.70;;;;;;4894123;28;45222;-60
2022/07/09 04:52:07;;;;;;;0.65;0.40;;;26.50;41.70;;;;;;4894266;28;45260;-61
2022/07/09 04:54:32;;;;;;;0.55;0.35;;;26.40;41.70;;;;;;4894963;28;46362;-61
2022/07/09 04:56:58;;;;;;;0.98;0.30;;;26.40;41.80;;;;;;4895805;28;44671;-59
2022/07/09 04:59:23;;;;;;;0.30;0.30;;;26.50;41.80;;;;;;4893312;28;45643;-60
2022/07/09 05:01:49;;;;;;;0.50;0.40;;;26.50;41.70;;;;;;4891176;28;45717;-61
2022/07/09 05:04:15;;;;;;;0.50;0.40;;;26.40;41.70;;;;;;4890339;28;46158;-61
2022/07/09 05:06:41;;;;;;;0.80;0.50;;;26.40;41.70;;;;;;4886809;28;45343;-62
2022/07/09 05:09:07;;;;;;;0.80;0.43;;;26.40;41.70;;;;;;4892063;28;45820;-62
2022/07/09 05:11:33;;;;;;;0.57;0.50;;;26.40;41.70;;;;;;4890451;28;45040;-64
2022/07/09 05:13:59;;;;;;;0.80;0.50;;;26.40;41.80;;;;;;4898306;28;46838;-60
2022/07/09 05:16:24;;;;;;;0.60;0.47;;;26.40;41.80;;;;;;4893829;28;45470;-60
2022/07/09 05:18:50;;;;;;;0.73;0.50;;;26.40;41.80;;;;;;4886917;28;45667;-60
2022/07/09 05:21:16;;;;;;;0.75;0.47;;;26.40;41.80;;;;;;4893254;28;45520;-58
2022/07/09 05:23:41;;;;;;;0.80;0.50;;;26.40;41.90;;;;;;4892696;28;47122;-59
2022/07/09 05:26:07;;;;;;;0.68;0.50;;;26.40;41.90;;;;;;4893158;28;45308;-60
2022/07/09 05:28:33;;;;;;;0.70;0.20;;;26.40;41.90;;;;;;4896953;28;45365;-61
2022/07/09 05:30:58;;;;;;;0.45;0.32;;;26.40;41.90;;;;;;4893958;28;44897;-61
2022/07/09 05:33:24;;;;;;;0.30;0.30;;;26.40;41.90;;;;;;4895317;28;45834;-60
2022/07/09 05:35:49;;;;;;;2.92;0.77;;;26.40;41.80;;;;;;4894950;28;45735;-61
2022/07/09 05:38:15;;;;;;;0.50;0.50;;;26.40;41.80;;;;;;4894723;28;45378;-59
2022/07/09 05:40:40;;;;;;;1.52;0.63;;;26.40;41.80;;;;;;4896320;28;45601;-60
2022/07/09 05:43:06;;;;;;;0.43;0.40;;;26.40;41.90;;;;;;4899705;28;46274;-61
2022/07/09 05:45:32;;;;;;;0.40;0.30;;;26.40;41.90;;;;;;4880668;28;45254;-62
2022/07/09 05:47:57;;;;;;;0.30;0.30;;;26.40;41.90;;;;;;4894080;28;45483;-59
2022/07/09 05:50:23;;;;;;;0.85;0.50;;;26.40;41.90;;;;;;4910806;28;44635;-59
2022/07/09 05:52:48;;;;;;;0.40;0.30;;;26.40;41.90;;;;;;4914377;28;46018;-60
2022/07/09 05:55:14;;;;;;;0.55;0.40;;;26.40;41.80;;;;;;4905238;28;45126;-57
2022/07/09 05:57:40;;;;;;;0.60;0.60;;;26.40;41.80;;;;;;4904219;28;44820;-58
2022/07/09 06:00:07;;;;;;;0.82;0.40;;;26.40;41.80;;;;;;4910788;28;45118;-58
2022/07/09 06:02:32;;;;;;;0.40;0.40;;;26.40;41.80;;;;;;4907351;28;46188;-58
2022/07/09 06:04:58;;;;;;;1.08;0.50;;;26.40;41.80;;;;;;4910066;28;45344;-58
2022/07/09 06:07:24;;;;;;;0.40;0.40;;;26.40;41.70;;;;;;4914085;28;45386;-58
2022/07/09 06:09:49;;;;;;;0.17;0.17;;;26.50;41.70;;;;;;4906776;28;45377;-60
2022/07/09 06:12:15;;;;;;;0.38;0.38;;;26.50;41.70;;;;;;4905576;28;46145;-59
2022/07/09 06:14:41;;;;;;;1.63;0.43;;;26.50;41.80;;;;;;4917890;28;45367;-57
2022/07/09 06:17:06;;;;;;;0.30;0.30;;;26.40;41.80;;;;;;4907094;28;45554;-60
2022/07/09 06:19:35;;;;;;;1.08;0.50;;;26.50;41.60;;;;;;4914046;28;45227;-57
2022/07/09 06:22:01;;;;;;;0.73;0.40;;;26.50;41.60;;;;;;4903550;28;47000;-55
2022/07/09 06:24:27;;;;;;;0.40;0.40;;;26.50;41.60;;;;;;4915845;28;44580;-62
2022/07/09 06:26:52;;;;;;;2.20;0.50;;;26.50;41.60;;;;;;4907455;28;45408;-61
2022/07/09 06:29:19;;;;;;;0.43;0.30;;;26.50;41.70;;;;;;4913424;28;45445;-60
2022/07/09 06:31:44;;;;;;;0.82;0.32;;;26.50;41.80;;;;;;4909478;28;45362;-64
2022/07/09 06:34:11;;;;;;;0.82;0.50;;;26.50;41.70;;;;;;4908759;28;45206;-59
2022/07/09 06:36:37;;;;;;;0.65;0.50;;;26.50;41.70;;;;;;4910116;28;45321;-60
2022/07/09 06:41:47;;;;;;;0.93;0.60;;;26.60;42.00;;;;;;4912564;28;45658;-63
2022/07/09 06:44:13;;;;;;;1.25;0.77;;;26.60;42.00;;;;;;4910442;28;45349;-59
2022/07/09 06:46:38;;;;;;;0.93;0.50;;;26.50;42.10;;;;;;4909355;28;45254;-57
2022/07/09 06:49:04;;;;;;;1.77;0.60;;;26.50;42.10;;;;;;4909706;28;46319;-60
2022/07/09 06:51:30;;;;;;;1.08;0.63;;;26.50;42.10;;;;;;4910643;28;45942;-58
2022/07/09 06:53:56;;;;;;;1.90;0.70;;;26.50;42.20;;;;;;4897042;28;44952;-59
2022/07/09 06:56:22;;;;;;;0.90;0.50;;;26.50;42.20;;;;;;4913315;28;45485;-61
2022/07/09 06:58:48;;;;;;;1.73;0.65;;;26.50;42.20;;;;;;4911702;28;45201;-59
2022/07/09 07:01:13;;;;;;;2.08;0.73;;;26.60;42.30;;;;;;4909425;28;46424;-58
2022/07/09 07:03:39;;;;;;;0.70;0.50;;;26.60;42.30;;;;;;4908099;28;44639;-59
2022/07/09 07:06:04;;;;;;;1.33;0.68;;;26.60;42.40;;;;;;4917135;28;44763;-61
2022/07/09 07:08:30;;;;;;;2.30;1.00;;;26.60;42.40;;;;;;4910847;28;45766;-59
2022/07/09 07:10:56;;;;;;;2.38;0.65;;;26.60;42.40;;;;;;4893861;28;44999;-56
2022/07/09 07:13:21;;;;;;;2.72;0.95;;;26.60;42.30;;;;;;4905992;28;44901;-60
2022/07/09 07:15:49;;;;;;;2.90;0.82;;;26.60;42.30;;;;;;4908695;28;45157;-73
2022/07/09 07:18:15;;;;;;;4.00;1.00;;;26.60;42.40;;;;;;4909130;28;44745;-62
2022/07/09 07:20:42;;;;;;;1.48;0.60;;;26.60;42.30;;;;;;4903746;28;45502;-57
2022/07/09 07:23:07;;;;;;;2.53;0.93;;;26.70;42.30;;;;;;4905715;28;45319;-64
2022/07/09 07:25:33;;;;;;;0.75;0.55;;;26.70;42.20;;;;;;4912880;28;45216;-63
2022/07/09 07:27:58;;;;;;;2.13;0.90;;;26.70;42.20;;;;;;4910532;28;45291;-60
2022/07/09 07:30:24;;;;;;;4.32;1.60;;;26.70;42.20;;;;;;4904170;28;45408;-66
2022/07/09 07:32:49;;;;;;;2.30;1.02;;;26.70;42.10;;;;;;4902992;28;46250;-60
2022/07/09 07:35:15;;;;;;;4.88;1.20;;;26.70;42.00;;;;;;4909968;28;45243;-60
2022/07/09 07:37:40;;;;;;;4.97;1.38;;;26.70;42.00;;;;;;4910894;28;45342;-62
2022/07/09 07:40:06;;;;;;;4.00;1.10;;;26.70;42.00;;;;;;4906274;28;46159;-59
2022/07/09 07:42:32;;;;;;;5.65;1.42;;;26.70;42.00;;;;;;4913425;28;45529;-60
2022/07/09 07:44:57;;;;;;;4.15;1.65;;;26.70;42.00;;;;;;4915150;28;44662;-59
2022/07/09 07:47:23;;;;;;;2.88;1.23;;;26.70;42.00;;;;;;4911086;28;45149;-61
2022/07/09 07:49:48;;;;;;;7.03;1.88;;;26.60;42.10;;;;;;4911872;28;45875;-63
2022/07/09 07:52:14;;;;;;;6.45;2.00;;;26.70;42.10;;;;;;4908739;28;44946;-61
2022/07/09 07:54:40;;;;;;;5.75;1.67;;;26.60;42.00;;;;;;4907972;28;45138;-62
2022/07/09 07:57:05;;;;;;;5.63;1.40;;;26.60;42.00;;;;;;4915312;28;45400;-62
2022/07/09 07:59:31;;;;;;;3.78;1.38;;;26.60;42.00;;;;;;4912293;28;46146;-62
2022/07/09 08:01:56;;;;;;;3.95;1.25;;;26.60;41.90;;;;;;4904155;28;45528;-60
2022/07/09 08:04:22;;;;;;;7.50;2.08;;;26.70;42.00;;;;;;4903624;28;45761;-61
2022/07/09 08:06:48;;;;;;;4.13;1.38;;;26.70;41.90;;;;;;4907020;28;44693;-62
2022/07/09 08:09:14;;;;;;;3.65;1.38;;;26.70;41.90;;;;;;4910233;28;45417;-60
2022/07/09 08:11:40;;;;;;;4.22;1.05;;;26.60;42.00;;;;;;4908004;28;45322;-64
2022/07/09 08:14:06;;;;;;;3.95;0.93;;;26.60;42.00;;;;;;4905889;28;45475;-62
2022/07/09 08:16:32;;;;;;;3.15;1.08;;;26.60;42.00;;;;;;4905713;28;44884;-62
2022/07/09 08:18:58;;;;;;;1.63;0.73;;;26.60;42.00;;;;;;4909524;28;46195;-65
2022/07/09 08:21:23;;;;;;;1.38;0.77;;;26.60;42.10;;;;;;4905342;28;45177;-62
2022/07/09 08:23:53;;;;;;;1.83;0.85;;;26.60;42.00;;;;;;4905681;28;45435;-69
2022/07/09 08:26:25;;;;;;;2.95;0.95;;;26.60;41.90;;;;;;4916775;28;45098;-67
2022/07/09 08:28:51;;;;;;;3.47;1.10;;;26.60;41.90;;;;;;4911426;28;45404;-57
2022/07/09 08:31:17;;;;;;;3.78;0.75;;;26.60;41.90;;;;;;4913569;28;44834;-60
2022/07/09 08:33:43;;;;;;;4.53;1.00;;;26.60;42.60;;;;;;4917479;28;45192;-61
2022/07/09 08:36:09;;;;;;;2.40;0.98;;;26.60;42.00;;;;;;4919685;28;45422;-60
2022/07/09 08:38:34;;;;;;;2.53;0.80;;;26.50;42.00;;;;;;4890353;28;45123;-63
2022/07/09 08:41:00;;;;;;;2.80;0.73;;;26.50;42.00;;;;;;4901348;28;44866;-58
2022/07/09 08:43:27;;;;;;;2.78;0.90;;;26.50;41.90;;;;;;4893019;28;45259;-61
2022/07/09 08:45:53;;;;;;;2.10;0.90;;;26.50;41.70;;;;;;4906155;28;45463;-62
2022/07/09 08:48:19;;;;;;;2.00;0.65;;;26.60;41.70;;;;;;4905119;28;45552;-64
2022/07/09 08:50:44;;;;;;;1.73;0.70;;;26.60;41.50;;;;;;4912759;28;45776;-60
2022/07/09 08:53:10;;;;;;;1.75;0.65;;;26.50;41.40;;;;;;4902700;28;44609;-61
2022/07/09 08:55:36;;;;;;;2.53;0.70;;;26.50;41.40;;;;;;4901185;28;45241;-61
2022/07/09 08:58:02;;;;;;;2.30;0.68;;;26.50;41.40;;;;;;4893241;28;45137;-60
2022/07/09 09:00:27;;;;;;;1.40;0.65;;;26.50;41.40;;;;;;4909389;28;44809;-61
2022/07/09 09:02:53;;;;;;;3.88;0.90;;;26.50;41.40;;;;;;4904569;28;45061;-70
2022/07/09 09:05:19;;;;;;;4.38;0.90;;;26.50;41.40;;;;;;4883875;29;45435;-57
2022/07/09 09:07:44;;;;;;;2.17;0.95;;;26.50;41.50;;;;;;4905374;28;47073;-60
2022/07/09 09:10:23;;;;;;;3.22;0.70;;;26.50;41.60;;;;;;4906073;28;45328;-57
2022/07/09 09:12:48;;;;;;;1.80;0.77;;;26.50;41.60;;;;;;4902523;28;45233;-58
2022/07/09 09:15:18;;;;;;;1.25;0.60;;;26.40;41.60;;;;;;4902433;28;45224;-59
2022/07/09 09:17:46;;;;;;;0.88;0.80;;;26.40;41.60;;;;;;4914205;28;46360;-62
2022/07/09 09:20:16;;;;;;;1.60;0.70;;;26.40;41.50;;;;;;4905101;28;44749;-63
2022/07/09 09:22:49;;;;;;;2.13;1.00;;;26.40;41.40;;;;;;4902693;28;45868;-62
2022/07/09 09:25:18;;;;;;;1.27;0.65;;;26.40;41.30;;;;;;4908545;28;45583;-57
2022/07/09 09:27:51;;;;;;;0.90;0.65;;;26.40;41.30;;;;;;4906786;28;47205;-60
2022/07/09 09:30:17;;;;;;;;;;;26.40;41.30;;;;;;4911047;28;44575;-59
2022/07/09 09:32:42;;;;;;;1.30;0.50;;;26.40;41.30;;;;;;4910242;28;45316;-59
2022/07/09 09:35:08;;;;;;;4.03;0.80;;;26.40;41.40;;;;;;4916412;28;45640;-61
2022/07/09 09:37:34;;;;;;;1.98;0.88;;;26.40;41.50;;;;;;4910203;28;45857;-62
2022/07/09 09:40:07;;;;;;;2.17;0.90;;;26.40;41.50;;;;;;4915887;28;45268;-66
2022/07/09 09:42:33;;;;;;;2.78;0.68;;;26.40;41.40;;;;;;4891769;28;45457;-59
2022/07/09 09:44:58;;;;;;;0.93;0.70;;;26.40;41.40;;;;;;4861668;28;45007;-58
2022/07/09 09:47:24;;;;;;;2.30;0.60;;;26.40;41.20;;;;;;4897471;28;48352;-57
2022/07/09 09:49:50;;;;;;;3.03;0.77;;;26.40;41.20;;;;;;4887869;28;45331;-65
2022/07/09 09:52:17;;;;;;;0.68;0.60;;;26.40;41.00;;;;;;4915312;28;45573;-60
2022/07/09 09:54:45;;;;;;;0.98;0.50;;;26.40;40.90;;;;;;4875093;28;45402;-62
2022/07/09 09:57:13;;;;;;;0.80;0.50;;;26.40;40.90;;;;;;4879968;28;45086;-65
2022/07/09 09:59:39;;;;;;;2.03;0.55;;;26.40;41.00;;;;;;4908531;28;45089;-64
2022/07/09 10:02:09;;;;;;;0.70;0.60;;;26.40;40.90;;;;;;4892245;28;45339;-62
2022/07/09 10:04:36;;;;;;;0.90;0.63;;;26.40;40.90;;;;;;4908938;28;45218;-62
2022/07/09 10:07:01;;;;;;;2.45;0.88;;;26.50;40.90;;;;;;4908684;28;45972;-65
2022/07/09 10:09:27;;;;;;;2.40;0.80;;;26.50;40.80;;;;;;4895885;28;44639;-60
2022/07/09 10:11:52;;;;;;;1.00;0.57;;;26.50;40.70;;;;;;4912488;28;45259;-61
2022/07/09 10:14:29;;;;;;;1.20;0.75;;;26.50;40.60;;;;;;4909136;28;45273;-60
2022/07/09 10:16:55;;;;;;;1.45;0.70;;;26.50;40.40;;;;;;4910829;28;46023;-61
2022/07/09 10:19:24;;;;;;;3.33;0.57;;;26.50;40.40;;;;;;4891793;28;45537;-61
2022/07/09 10:21:52;;;;;;;1.90;0.55;;;26.50;40.30;;;;;;4901479;28;45253;-73
2022/07/09 10:24:28;;;;;;;0.68;0.45;;;26.50;40.40;;;;;;4913103;28;45560;-63
2022/07/09 10:27:11;;;;;;;4.05;0.60;;;26.50;40.30;;;;;;4905448;28;46113;-61
2022/07/09 10:29:37;;;;;;;;;;;26.50;40.40;;;;;;4910651;28;44879;-60
2022/07/09 10:32:03;;;;;;;0.70;0.50;;;26.40;40.30;;;;;;4873653;28;45314;-64
2022/07/09 10:34:48;;;;;;;1.80;0.75;;;26.40;40.50;;;;;;4886204;28;45346;-65
2022/07/09 10:37:13;;;;;;;2.22;0.60;;;26.40;40.50;;;;;;4903349;28;45410;-62
2022/07/09 10:39:39;;;;;;;3.88;0.80;;;26.40;40.70;;;;;;4892959;28;45557;-63
2022/07/09 10:42:06;;;;;;;2.65;0.90;;;26.40;40.80;;;;;;4885290;28;45316;-61
2022/07/09 10:44:39;;;;;;;1.10;0.70;;;26.40;40.90;;;;;;4905945;28;45265;-63
2022/07/09 10:47:05;;;;;;;;;;;26.40;40.90;;;;;;4910106;28;47102;-65
2022/07/09 10:49:31;;;;;;;1.52;0.70;;;26.40;41.00;;;;;;4909342;28;45212;-64
2022/07/09 10:51:59;;;;;;;1.02;0.70;;;26.40;41.00;;;;;;4891360;28;45145;-65
2022/07/09 10:54:25;;;;;;;0.95;0.60;;;26.30;41.00;;;;;;4885801;29;45397;-63
2022/07/09 10:56:52;;;;;;;1.25;0.80;;;26.30;40.90;;;;;;4908212;28;46874;-62
2022/07/09 10:59:20;;;;;;;1.63;0.70;;;26.30;41.00;;;;;;4897909;28;45180;-62
2022/07/09 11:01:46;;;;;;;1.88;0.70;;;26.30;41.00;;;;;;4902832;28;45468;-68
2022/07/09 11:04:14;;;;;;;1.23;0.73;;;26.30;40.90;;;;;;4883355;28;44861;-65
2022/07/09 11:06:49;;;;;;;1.77;0.93;;;26.30;40.90;;;;;;4911550;28;46035;-62
2022/07/09 11:09:15;;;;;;;6.97;1.20;;;26.30;40.90;;;;;;4903459;28;45552;-60
2022/07/09 11:11:44;;;;;;;5.05;1.00;;;26.30;40.90;;;;;;4909152;28;44787;-64
2022/07/09 11:14:10;;;;;;;2.70;1.25;;;26.30;41.00;;;;;;4909097;28;45184;-62
2022/07/09 11:16:35;;;;;;;5.15;1.30;;;26.30;41.00;;;;;;4891596;28;45868;-65
2022/07/09 11:19:21;;;;;;;3.47;1.10;;;26.20;41.00;;;;;;4906309;28;45367;-59
2022/07/09 11:21:47;;;;;;;2.92;1.10;;;26.20;41.10;;;;;;4903901;28;45377;-70
2022/07/09 11:24:17;;;;;;;2.67;1.42;;;26.20;41.10;;;;;;4907844;28;44832;-65
2022/07/09 11:26:42;;;;;;;1.73;1.00;;;26.20;41.10;;;;;;4907471;28;47209;-65
2022/07/09 11:29:08;;;;;;;2.72;1.35;;;26.20;41.10;;;;;;4899978;28;45338;-62
2022/07/09 11:31:35;;;;;;;3.17;1.02;;;26.20;41.20;;;;;;4910686;28;45492;-66
2022/07/09 11:34:15;;;;;;;3.63;1.15;;;26.20;41.20;;;;;;4907975;28;45886;-66
2022/07/09 11:36:45;;;;;;;2.80;1.10;;;26.20;41.30;;;;;;4895330;28;46246;-63
2022/07/09 11:39:32;;;;;;;2.95;0.95;;;26.20;41.40;;;;;;4907365;28;45266;-60
2022/07/09 11:41:58;;;;;;;2.55;1.00;;;26.20;41.50;;;;;;4913652;28;45180;-59
2022/07/09 11:44:25;;;;;;;2.75;1.00;;;26.10;41.40;;;;;;4911722;28;44703;-59
2022/07/09 11:47:07;;;;;;;5.25;1.08;;;26.10;41.40;;;;;;4905226;28;47264;-63
2022/07/09 11:49:40;;;;;;;5.50;0.95;;;26.10;41.60;;;;;;4903982;28;45380;-66
2022/07/09 11:52:19;;;;;;;2.83;0.85;;;26.10;41.60;;;;;;4897475;28;45075;-63
2022/07/09 11:54:58;;;;;;;1.77;0.80;;;26.10;41.80;;;;;;4907282;28;45506;-61
2022/07/09 11:57:23;;;;;;;1.50;0.98;;;26.10;42.40;;;;;;4907063;28;46164;-64
2022/07/09 11:59:49;;;;;;;1.52;0.90;;;26.00;41.70;;;;;;4894585;28;45629;-61
2022/07/09 12:02:33;;;;;;;3.22;1.15;;;26.00;41.80;;;;;;4897745;28;46379;-59
2022/07/09 12:04:59;;;;;;;3.08;0.90;;;26.00;42.00;;;;;;4901026;28;45575;-58
2022/07/09 12:07:25;;;;;;;1.48;0.90;;;26.00;42.00;;;;;;4901857;28;46091;-59
2022/07/09 12:10:05;;;;;;;1.52;0.90;;;26.00;41.90;;;;;;4903499;28;44671;-56
2022/07/09 12:12:31;;;;;;;1.42;0.88;;;26.00;41.90;;;;;;4902413;28;45446;-61
2022/07/09 12:14:56;;;;;;;3.35;1.02;;;26.00;41.80;;;;;;4901136;28;45349;-66
2022/07/09 12:17:29;;;;;;;2.30;1.00;;;26.10;41.80;;;;;;4910704;28;46344;-58
2022/07/09 12:19:55;;;;;;;3.30;1.50;;;26.10;41.90;;;;;;4889183;28;45361;-62
2022/07/09 12:22:23;;;;;;;1.02;0.60;;;26.10;41.80;;;;;;4904577;28;45633;-62
2022/07/09 12:24:48;;;;;;;2.40;0.90;;;26.10;41.80;;;;;;4908127;28;45261;-59
2022/07/09 12:27:14;;;;;;;1.48;0.88;;;26.10;41.80;;;;;;4907593;28;46117;-60
2022/07/09 12:29:40;;;;;;;1.40;1.00;;;26.10;41.80;;;;;;4905999;28;45299;-61
2022/07/09 12:32:05;;;;;;;1.42;1.02;;;26.10;41.70;;;;;;4905146;28;45220;-61
2022/07/09 12:34:31;;;;;;;0.77;0.77;;;26.10;41.70;;;;;;4911851;28;45341;-56
2022/07/09 12:36:57;;;;;;;1.33;0.70;;;26.10;41.70;;;;;;4901372;28;46126;-64
2022/07/09 12:39:24;;;;;;;3.42;0.90;;;26.10;41.70;;;;;;4907075;28;45140;-61
2022/07/09 12:41:49;;;;;;;2.17;0.73;;;26.10;41.70;;;;;;4906728;28;45063;-62
2022/07/09 12:44:15;;;;;;;0.77;0.60;;;26.10;41.70;;;;;;4908956;28;45158;-61
2022/07/09 12:46:41;;;;;;;1.60;0.73;;;26.10;41.70;;;;;;4891327;28;45914;-63
2022/07/09 12:49:07;;;;;;;4.22;0.70;;;26.10;41.60;;;;;;4905409;28;45161;-63
2022/07/09 12:51:32;;;;;;;0.98;0.70;;;26.20;41.60;;;;;;4902438;28;44920;-63
2022/07/09 12:53:58;;;;;;;1.05;0.73;;;26.20;41.50;;;;;;4905816;28;45205;-63
2022/07/09 12:56:24;;;;;;;1.35;0.80;;;26.20;41.40;;;;;;4899726;28;47031;-65
2022/07/09 12:58:49;;;;;;;0.88;0.60;;;26.30;41.40;;;;;;4886341;28;45829;-65
2022/07/09 13:01:15;;;;;;;1.10;0.60;;;26.30;41.20;;;;;;4892737;28;45308;-65
2022/07/09 13:03:41;;;;;;;1.15;0.80;;;26.30;41.00;;;;;;4893762;28;46121;-65
2022/07/09 13:06:30;;;;;;;1.80;0.70;;;26.40;40.90;;;;;;4894595;28;46192;-67
2022/07/09 13:08:53;;;;;;;1.58;0.90;;;26.30;40.70;;;;;;4893334;28;44794;-68
2022/07/09 13:11:18;;;;;;;1.67;0.90;;;26.30;40.60;;;;;;4890976;28;45521;-66
2022/07/09 13:13:44;;;;;;;2.05;0.80;;;26.40;40.60;;;;;;4896873;28;45059;-63
2022/07/09 13:16:09;;;;;;;2.80;0.90;;;26.40;40.60;;;;;;4892635;28;45319;-65
2022/07/09 13:18:35;;;;;;;2.42;0.70;;;26.40;40.50;;;;;;4895096;28;45444;-64
2022/07/09 13:21:00;;;;;;;2.15;0.73;;;26.40;40.40;;;;;;4892934;28;45394;-65
2022/07/09 13:23:26;;;;;;;1.45;0.80;;;26.40;40.30;;;;;;4887970;28;45264;-61
2022/07/09 13:25:51;;;;;;;1.55;0.80;;;26.40;40.20;;;;;;4890095;28;45952;-64
2022/07/09 13:28:17;;;;;;;3.15;0.73;;;26.40;40.20;;;;;;4892851;28;45261;-59
2022/07/09 13:30:43;;;;;;;1.55;0.90;;;26.50;40.30;;;;;;4897910;28;45467;-60
2022/07/09 13:33:08;;;;;;;1.67;1.05;;;26.50;40.10;;;;;;4897315;28;45758;-58
2022/07/09 13:35:34;;;;;;;1.67;1.10;;;26.50;40.10;;;;;;4882818;28;46052;-63
2022/07/09 13:38:00;;;;;;;3.28;1.17;;;26.50;40.10;;;;;;4897377;28;45325;-61
2022/07/09 13:40:25;;;;;;;1.73;0.85;;;26.50;40.00;;;;;;4896867;28;45404;-59
2022/07/09 13:42:51;;;;;;;1.88;0.95;;;26.50;40.00;;;;;;4899016;28;45237;-67
2022/07/09 13:45:16;;;;;;;1.90;0.90;;;26.50;40.00;;;;;;4897601;28;45610;-62
2022/07/09 13:47:42;;;;;;;1.23;1.00;;;26.40;39.90;;;;;;4895033;28;44705;-64
2022/07/09 13:50:08;;;;;;;2.97;1.10;;;26.40;39.80;;;;;;4889036;28;45232;-67
2022/07/09 13:52:33;;;;;;;1.20;0.82;;;26.40;39.80;;;;;;4892884;28;45119;-63
2022/07/09 13:54:59;;;;;;;4.47;0.93;;;26.40;39.70;;;;;;4897115;28;46166;-65
2022/07/09 13:57:24;;;;;;;1.30;0.88;;;26.40;39.60;;;;;;4893217;28;45321;-63
2022/07/09 13:59:50;;;;;;;1.73;1.05;;;26.50;39.60;;;;;;4896125;28;45893;-61
2022/07/09 14:02:16;;;;;;;3.90;0.98;;;26.50;39.60;;;;;;4897949;28;45616;-62
2022/07/09 14:04:41;;;;;;;3.30;1.23;;;26.40;39.50;;;;;;4897937;28;46774;-66
2022/07/09 14:07:07;;;;;;;1.77;1.08;;;26.40;39.50;;;;;;4901638;28;45514;-63
2022/07/09 14:09:33;;;;;;;3.45;1.13;;;26.40;39.40;;;;;;4891472;28;46029;-63
2022/07/09 14:11:59;;;;;;;2.90;1.10;;;26.50;39.50;;;;;;4905563;28;45635;-62
2022/07/09 14:14:24;;;;;;;1.45;0.90;;;26.50;39.40;;;;;;4912108;28;45997;-65
2022/07/09 14:16:50;;;;;;;1.75;0.95;;;26.50;39.30;;;;;;4912461;28;45520;-63
2022/07/09 14:19:16;;;;;;;3.13;1.10;;;26.50;39.30;;;;;;4909303;28;45636;-64
2022/07/09 14:21:41;;;;;;;1.25;1.00;;;26.60;39.50;;;;;;4904060;28;45359;-63
2022/07/09 14:24:07;;;;;;;3.97;1.25;;;26.60;39.40;;;;;;4910882;28;46167;-67
2022/07/09 14:26:33;;;;;;;2.00;1.10;;;26.60;39.30;;;;;;4898400;28;45294;-67
2022/07/09 14:28:59;;;;;;;3.97;1.10;;;26.60;39.20;;;;;;4888811;28;45372;-61
2022/07/09 14:31:25;;;;;;;3.60;1.15;;;26.60;39.20;;;;;;4891781;28;45546;-62
2022/07/09 14:33:50;;;;;;;1.92;1.10;;;26.70;39.20;;;;;;4875727;28;45505;-63
2022/07/09 14:36:16;;;;;;;4.72;1.35;;;26.70;39.10;;;;;;4908267;28;45118;-63
2022/07/09 14:38:41;;;;;;;1.63;1.08;;;26.70;39.10;;;;;;4906801;28;44816;-65
2022/07/09 14:41:07;;;;;;;1.15;1.02;;;26.70;39.10;;;;;;4901607;28;45319;-62
2022/07/09 14:43:32;;;;;;;2.33;0.98;;;26.80;39.20;;;;;;4912487;28;47026;-65
2022/07/09 14:45:58;;;;;;;1.77;1.20;;;26.70;39.00;;;;;;4907818;28;44985;-64
2022/07/09 14:48:24;;;;;;;1.70;1.20;;;26.70;39.00;;;;;;4911442;28;45464;-63
2022/07/09 14:50:49;;;;;;;1.73;0.82;;;26.80;39.00;;;;;;4897582;28;45550;-61
2022/07/09 14:53:15;;;;;;;1.45;1.08;;;26.80;39.10;;;;;;4886668;28;46107;-63
2022/07/09 14:55:40;;;;;;;1.58;1.08;;;26.80;39.10;;;;;;4906793;28;45232;-64
2022/07/09 14:58:06;;;;;;;2.25;1.00;;;26.80;39.10;;;;;;4908543;28;45382;-67
2022/07/09 15:00:31;;;;;;;1.08;0.98;;;26.80;39.10;;;;;;4909527;28;45127;-63
2022/07/09 15:02:57;;;;;;;1.38;1.10;;;26.70;39.10;;;;;;4907354;28;46258;-62
2022/07/09 15:05:23;;;;;;;1.10;0.98;;;26.70;39.10;;;;;;4910583;28;45351;-60
2022/07/09 15:07:49;;;;;;;1.70;1.10;;;26.80;39.10;;;;;;4909113;28;45824;-61
2022/07/09 15:10:14;;;;;;;5.13;1.10;;;26.80;39.10;;;;;;4888177;29;45420;-61
2022/07/09 15:12:40;;;;;;;1.77;1.13;;;26.80;39.20;;;;;;4902705;28;46121;-62
2022/07/09 15:15:06;;;;;;;2.55;1.00;;;26.90;39.10;;;;;;4905345;28;44911;-59
2022/07/09 15:17:31;;;;;;;2.25;1.20;;;26.90;39.10;;;;;;4890441;28;45162;-66
2022/07/09 15:19:57;;;;;;;2.35;1.48;;;26.90;39.10;;;;;;4896402;28;45756;-65
2022/07/09 15:22:23;;;;;;;1.88;1.10;;;26.90;39.10;;;;;;4914433;28;45400;-63
2022/07/09 15:24:48;;;;;;;4.18;1.38;;;26.90;39.10;;;;;;4905159;28;45433;-61
2022/07/09 15:27:15;;;;;;;2.03;1.40;;;26.90;39.00;;;;;;4892421;28;45469;-63
2022/07/09 15:29:41;;;;;;;1.63;0.95;;;26.90;38.90;;;;;;4903991;28;45441;-63
2022/07/09 15:32:07;;;;;;;3.58;1.05;;;26.90;39.00;;;;;;4910898;28;46059;-64
2022/07/09 15:34:32;;;;;;;1.98;1.10;;;26.90;38.80;;;;;;4909142;28;45294;-65
2022/07/09 15:37:00;;;;;;;2.25;1.50;;;26.90;38.80;;;;;;4906593;28;44795;-61
2022/07/09 15:39:26;;;;;;;3.33;1.38;;;26.90;38.80;;;;;;4899078;28;45164;-65
2022/07/09 15:41:55;;;;;;;2.45;1.80;;;27.00;38.80;;;;;;4895536;28;45552;-60
2022/07/09 15:44:20;;;;;;;6.35;1.58;;;26.90;38.80;;;;;;4896979;28;45284;-63
2022/07/09 15:46:46;;;;;;;2.90;1.63;;;26.90;38.90;;;;;;4898735;28;45358;-61